Time;durP1;ratioP1;P1;durP2;ratioP2;P2;SDS_P1;SDS_P2;PMS_P1;PMS_P2;Temp;Humidity;BMP_temperature;BMP_pressure;BME280_temperature;BME280_humidity;BME280_pressure;Samples;Min_cycle;Max_cycle;Signal;HPM_P1;HPM_P2
2023/08/11 00:00:08;;;;;;;10.77;6.75;;;16.50;99.90;;;;;;4962105;28;20046;-59
2023/08/11 00:02:36;;;;;;;8.18;5.75;;;15.70;99.90;;;;;;4971230;28;20469;-59
2023/08/11 00:05:03;;;;;;;9.07;5.68;;;;;;;;;;4970977;28;20078;-58
2023/08/11 00:07:28;;;;;;;9.00;6.53;;;16.00;99.90;;;;;;4971028;28;20525;-59
2023/08/11 00:09:55;;;;;;;8.15;6.15;;;16.00;99.90;;;;;;4969660;28;20138;-59
2023/08/11 00:12:21;;;;;;;10.52;7.10;;;15.50;99.90;;;;;;4962961;28;20452;-59
2023/08/11 00:14:46;;;;;;;9.30;6.28;;;15.80;99.90;;;;;;4971290;28;20097;-59
2023/08/11 00:17:12;;;;;;;9.43;6.53;;;15.90;99.90;;;;;;4971895;28;20361;-59
2023/08/11 00:19:38;;;;;;;10.18;6.68;;;15.70;99.90;;;;;;4968157;28;20042;-58
2023/08/11 00:22:05;;;;;;;8.02;6.35;;;16.20;99.90;;;;;;4970259;28;20042;-59
2023/08/11 00:24:31;;;;;;;9.82;6.40;;;15.70;99.90;;;;;;4965597;28;20039;-59
2023/08/11 00:26:57;;;;;;;9.98;7.15;;;15.40;99.90;;;;;;4969105;28;20062;-59
2023/08/11 00:29:24;;;;;;;10.98;7.97;;;;;;;;;;4969664;28;20406;-59
2023/08/11 00:31:49;;;;;;;11.00;7.63;;;15.40;99.90;;;;;;4971583;28;20047;-59
2023/08/11 00:34:15;;;;;;;9.70;6.32;;;15.50;99.90;;;;;;4962530;28;20043;-59
2023/08/11 00:36:41;;;;;;;9.40;6.97;;;15.60;99.90;;;;;;4963690;28;20051;-59
2023/08/11 00:39:07;;;;;;;10.45;6.95;;;15.60;99.90;;;;;;4965809;28;20122;-59
2023/08/11 00:41:33;;;;;;;10.38;6.78;;;16.00;99.90;;;;;;4969779;28;20097;-59
2023/08/11 00:43:58;;;;;;;10.65;7.38;;;15.20;99.90;;;;;;4964855;28;20071;-59
2023/08/11 00:46:24;;;;;;;11.10;7.32;;;16.00;99.90;;;;;;4966983;28;20058;-58
2023/08/11 00:48:53;;;;;;;11.50;7.32;;;15.40;99.90;;;;;;4967336;28;20045;-59
2023/08/11 00:51:22;;;;;;;10.68;7.40;;;15.00;99.90;;;;;;4955771;28;20050;-58
2023/08/11 00:53:49;;;;;;;9.90;6.47;;;15.00;99.90;;;;;;4963385;28;20129;-59
2023/08/11 00:56:15;;;;;;;13.10;7.55;;;14.90;99.90;;;;;;4967478;28;20437;-57
2023/08/11 00:58:43;;;;;;;11.02;7.70;;;15.40;99.90;;;;;;4957100;28;20118;-59
2023/08/11 01:01:10;;;;;;;10.38;7.00;;;;;;;;;;4965208;28;20062;-57
2023/08/11 01:03:35;;;;;;;10.63;6.93;;;14.90;99.90;;;;;;4952630;28;20109;-58
2023/08/11 01:06:35;;;;;;;9.82;7.20;;;15.10;99.90;;;;;;4970690;28;20494;-58
2023/08/11 01:09:21;;;;;;;11.35;7.47;;;15.60;99.90;;;;;;4961745;28;20041;-59
2023/08/11 01:12:19;;;;;;;10.02;7.68;;;15.40;99.90;;;;;;4963951;28;20054;-59
2023/08/11 01:15:35;;;;;;;12.15;9.10;;;14.60;99.90;;;;;;4958722;28;20054;-58
2023/08/11 01:18:03;;;;;;;10.35;7.15;;;14.90;99.90;;;;;;4902920;29;20123;-59
2023/08/11 01:20:30;;;;;;;12.15;8.27;;;15.30;99.90;;;;;;4927361;29;20047;-58
2023/08/11 01:22:58;;;;;;;11.05;7.43;;;14.80;99.90;;;;;;4936491;28;20126;-59
2023/08/11 01:25:25;;;;;;;10.88;7.30;;;16.00;99.90;;;;;;4968869;28;20081;-59
2023/08/11 01:27:58;;;;;;;10.43;7.47;;;;;;;;;;4966310;28;20050;-59
2023/08/11 01:30:26;;;;;;;10.23;7.25;;;15.20;99.90;;;;;;4957784;28;20039;-59
2023/08/11 01:32:51;;;;;;;10.80;7.60;;;14.90;99.90;;;;;;4964075;28;20110;-59
2023/08/11 01:35:18;;;;;;;12.38;7.65;;;15.00;99.90;;;;;;4965974;28;20118;-59
2023/08/11 01:37:44;;;;;;;11.75;7.85;;;14.90;99.90;;;;;;4967613;28;20119;-58
2023/08/11 01:40:10;;;;;;;11.73;7.75;;;14.60;99.90;;;;;;4960547;28;20043;-59
2023/08/11 01:42:40;;;;;;;12.05;8.70;;;14.80;99.90;;;;;;4965340;28;20038;-59
2023/08/11 01:45:08;;;;;;;12.52;8.15;;;14.70;99.90;;;;;;4967278;28;20042;-60
2023/08/11 01:47:36;;;;;;;11.07;8.30;;;14.80;99.90;;;;;;4963967;28;20560;-60
2023/08/11 01:50:02;;;;;;;12.85;9.15;;;15.00;99.90;;;;;;4968843;28;20043;-60
2023/08/11 01:52:31;;;;;;;12.25;9.38;;;;;;;;;;4969023;28;20071;-60
2023/08/11 01:54:57;;;;;;;11.80;8.50;;;15.20;99.90;;;;;;4961296;28;20049;-60
2023/08/11 01:57:23;;;;;;;12.65;9.35;;;14.90;99.90;;;;;;4957392;28;20050;-60
2023/08/11 01:59:49;;;;;;;15.90;9.77;;;14.50;99.90;;;;;;4963439;28;20068;-60
2023/08/11 02:02:16;;;;;;;14.82;10.57;;;14.90;99.90;;;;;;4966006;28;20039;-60
2023/08/11 02:04:42;;;;;;;16.08;10.27;;;14.80;99.90;;;;;;4967039;28;20496;-60
2023/08/11 02:07:07;;;;;;;16.00;10.35;;;15.00;99.90;;;;;;4962671;28;20057;-60
2023/08/11 02:09:33;;;;;;;13.52;9.93;;;14.90;99.90;;;;;;4961710;28;20035;-59
2023/08/11 02:11:59;;;;;;;12.82;10.23;;;15.10;99.90;;;;;;4958216;28;20043;-59
2023/08/11 02:14:24;;;;;;;14.82;10.90;;;14.90;99.90;;;;;;4961935;28;20043;-60
2023/08/11 02:16:50;;;;;;;15.30;12.05;;;15.50;99.90;;;;;;4962930;28;20051;-60
2023/08/11 02:19:16;;;;;;;14.10;10.77;;;14.80;99.90;;;;;;4959092;28;20047;-60
2023/08/11 02:21:42;;;;;;;18.40;11.65;;;15.10;99.90;;;;;;4958900;28;20027;-60
2023/08/11 02:24:07;;;;;;;17.20;12.02;;;14.90;99.90;;;;;;4953095;28;20088;-58
2023/08/11 02:26:33;;;;;;;14.55;11.82;;;14.80;99.90;;;;;;4954968;28;20637;-60
2023/08/11 02:28:59;;;;;;;14.07;11.65;;;14.80;99.90;;;;;;4968968;28;20372;-60
2023/08/11 02:31:26;;;;;;;16.70;13.20;;;14.70;99.90;;;;;;4986613;28;20054;-60
2023/08/11 02:33:52;;;;;;;18.05;13.07;;;15.40;99.90;;;;;;4968260;28;20181;-60
2023/08/11 02:36:20;;;;;;;17.63;13.73;;;15.30;99.90;;;;;;4965845;28;20047;-60
2023/08/11 02:38:45;;;;;;;17.42;14.00;;;14.50;99.90;;;;;;4967186;28;20179;-60
2023/08/11 02:41:11;;;;;;;19.00;14.45;;;15.00;99.90;;;;;;4968505;28;20229;-60
2023/08/11 02:43:37;;;;;;;19.25;14.50;;;14.90;99.90;;;;;;4966411;28;20050;-59
2023/08/11 02:46:05;;;;;;;19.80;13.75;;;15.00;99.90;;;;;;4973199;28;20042;-60
2023/08/11 02:48:33;;;;;;;20.30;14.45;;;15.60;1.00;;;;;;4967793;28;20501;-58
2023/08/11 02:51:05;;;;;;;22.52;14.38;;;15.00;1.00;;;;;;4972974;28;20505;-60
2023/08/11 02:53:31;;;;;;;20.77;15.50;;;15.10;1.00;;;;;;4964716;28;20049;-60
2023/08/11 02:55:58;;;;;;;17.95;15.10;;;15.10;1.00;;;;;;4988524;28;20035;-60
2023/08/11 02:58:24;;;;;;;18.02;16.05;;;15.00;1.00;;;;;;4971614;28;20050;-60
2023/08/11 03:00:49;;;;;;;19.15;15.05;;;15.00;1.00;;;;;;4971312;28;20416;-60
2023/08/11 03:03:15;;;;;;;18.95;15.77;;;15.00;1.00;;;;;;4972197;28;20119;-61
2023/08/11 03:05:44;;;;;;;19.58;15.57;;;15.10;1.00;;;;;;4967434;28;20106;-59
2023/08/11 03:08:10;;;;;;;18.90;14.55;;;15.00;1.00;;;;;;4968693;28;20038;-60
2023/08/11 03:10:35;;;;;;;18.92;16.33;;;15.20;1.00;;;;;;4965175;28;20396;-60
2023/08/11 03:13:01;;;;;;;16.42;14.25;;;15.30;1.00;;;;;;4967648;28;20039;-60
2023/08/11 03:15:27;;;;;;;19.52;15.38;;;15.00;1.00;;;;;;4971615;28;20043;-60
2023/08/11 03:17:54;;;;;;;18.48;16.13;;;;;;;;;;4957644;28;20045;-60
2023/08/11 03:20:20;;;;;;;23.17;16.27;;;15.20;1.00;;;;;;4970049;28;20101;-60
2023/08/11 03:22:46;;;;;;;18.63;15.98;;;14.60;1.00;;;;;;4969334;28;20460;-60
2023/08/11 03:25:12;;;;;;;18.92;16.27;;;14.90;1.00;;;;;;4966071;28;20043;-60
2023/08/11 03:27:42;;;;;;;23.38;17.20;;;15.50;1.00;;;;;;4968744;28;20042;-60
2023/08/11 03:30:10;;;;;;;18.92;16.35;;;14.70;1.00;;;;;;4969064;28;20516;-60
2023/08/11 03:32:40;;;;;;;19.13;16.50;;;15.10;1.00;;;;;;4969243;28;20069;-60
2023/08/11 03:35:06;;;;;;;20.65;17.00;;;;;;;;;;4960713;28;20457;-60
2023/08/11 03:37:33;;;;;;;20.10;16.40;;;14.80;1.00;;;;;;4969853;28;20468;-60
2023/08/11 03:39:59;;;;;;;22.20;17.70;;;15.40;1.00;;;;;;4965379;28;20038;-60
2023/08/11 03:42:24;;;;;;;21.38;15.98;;;15.10;1.00;;;;;;4967939;28;20130;-58
2023/08/11 03:44:51;;;;;;;20.30;16.85;;;15.50;1.00;;;;;;4969570;28;20058;-60
2023/08/11 03:47:18;;;;;;;21.30;16.50;;;15.00;1.00;;;;;;4960616;28;20504;-60
2023/08/11 03:49:45;;;;;;;19.88;16.85;;;15.40;1.00;;;;;;4962032;28;20082;-60
2023/08/11 03:52:12;;;;;;;19.13;15.85;;;15.10;1.00;;;;;;4963692;28;20069;-60
2023/08/11 03:54:38;;;;;;;21.73;17.35;;;15.10;1.00;;;;;;4968625;28;20101;-59
2023/08/11 03:57:04;;;;;;;17.83;15.20;;;14.60;1.00;;;;;;4969719;28;20046;-60
2023/08/11 03:59:30;;;;;;;19.42;16.40;;;14.60;1.00;;;;;;4965562;28;20027;-60
2023/08/11 04:01:55;;;;;;;20.42;17.23;;;14.60;1.00;;;;;;4965289;28;20540;-60
2023/08/11 04:04:21;;;;;;;17.08;15.00;;;14.80;1.00;;;;;;4966629;28;20050;-60
2023/08/11 04:06:47;;;;;;;20.25;15.70;;;15.00;1.00;;;;;;4962958;28;20039;-59
2023/08/11 04:09:12;;;;;;;20.52;17.90;;;14.60;1.00;;;;;;4966697;28;20153;-59
2023/08/11 04:11:38;;;;;;;23.25;17.48;;;15.10;1.00;;;;;;4962348;28;20098;-60
2023/08/11 04:14:04;;;;;;;16.92;15.13;;;14.50;1.00;;;;;;4961626;28;20054;-59
2023/08/11 04:16:29;;;;;;;20.50;15.27;;;14.60;1.00;;;;;;4965296;28;20035;-60
2023/08/11 04:18:55;;;;;;;17.20;14.95;;;14.60;1.00;;;;;;4965366;28;20117;-60
2023/08/11 04:21:23;;;;;;;18.70;16.65;;;14.80;1.00;;;;;;4963487;28;20070;-60
2023/08/11 04:23:49;;;;;;;18.63;15.93;;;;;;;;;;4967854;28;20042;-59
2023/08/11 04:26:14;;;;;;;19.42;16.80;;;14.80;1.00;;;;;;4972039;28;20403;-59
2023/08/11 04:28:43;;;;;;;19.73;16.40;;;14.80;1.00;;;;;;4965884;28;20051;-60
2023/08/11 04:31:09;;;;;;;18.73;15.07;;;14.70;1.00;;;;;;4970369;28;20046;-60
2023/08/11 04:33:35;;;;;;;18.00;16.15;;;15.10;1.00;;;;;;4963126;28;20038;-59
2023/08/11 04:36:02;;;;;;;21.00;15.80;;;14.60;1.00;;;;;;4968420;28;20037;-60
2023/08/11 04:38:30;;;;;;;18.63;15.25;;;;;;;;;;4968317;28;20035;-60
2023/08/11 04:40:59;;;;;;;18.65;15.98;;;14.80;1.00;;;;;;4966771;28;20047;-60
2023/08/11 04:43:24;;;;;;;19.27;16.15;;;14.60;1.00;;;;;;4968908;28;20039;-59
2023/08/11 04:45:50;;;;;;;17.80;15.70;;;14.50;1.00;;;;;;4961180;28;20029;-60
2023/08/11 04:48:16;;;;;;;17.23;15.43;;;14.80;1.00;;;;;;4968478;28;20519;-60
2023/08/11 04:50:46;;;;;;;25.33;15.77;;;14.40;1.00;;;;;;4967290;28;20046;-60
2023/08/11 04:53:12;;;;;;;16.17;12.82;;;14.90;1.00;;;;;;4965176;28;20053;-60
2023/08/11 04:55:40;;;;;;;19.73;15.75;;;14.70;1.00;;;;;;4962286;28;20043;-60
2023/08/11 04:58:06;;;;;;;16.25;14.43;;;15.10;1.00;;;;;;4966696;28;20042;-60
2023/08/11 05:00:33;;;;;;;18.13;14.98;;;14.80;1.00;;;;;;4963815;28;20031;-60
2023/08/11 05:02:59;;;;;;;17.58;13.80;;;14.80;1.00;;;;;;4968780;28;20038;-59
2023/08/11 05:05:26;;;;;;;17.58;14.60;;;14.90;1.00;;;;;;4963863;28;20491;-60
2023/08/11 05:07:52;;;;;;;16.92;14.23;;;15.00;1.00;;;;;;4966403;28;20034;-60
2023/08/11 05:10:18;;;;;;;16.42;13.38;;;14.80;1.00;;;;;;4968799;28;20102;-60
2023/08/11 05:12:44;;;;;;;16.40;12.63;;;14.50;1.00;;;;;;4961844;28;20054;-60
2023/08/11 05:15:11;;;;;;;16.42;13.50;;;14.80;1.00;;;;;;4968948;28;20488;-60
2023/08/11 05:17:37;;;;;;;15.30;12.70;;;15.60;1.00;;;;;;4946784;28;20533;-60
2023/08/11 05:20:07;;;;;;;15.70;13.35;;;14.80;1.00;;;;;;4968537;28;20047;-60
2023/08/11 05:22:33;;;;;;;15.52;13.07;;;15.00;1.00;;;;;;4961738;28;20091;-59
2023/08/11 05:24:59;;;;;;;17.30;11.95;;;15.30;1.00;;;;;;4963399;28;20042;-60
2023/08/11 05:27:24;;;;;;;17.63;12.35;;;15.50;1.00;;;;;;4962102;28;20304;-60
2023/08/11 05:29:50;;;;;;;15.23;13.10;;;15.60;1.00;;;;;;4964454;28;20047;-60
2023/08/11 05:32:16;;;;;;;16.55;12.40;;;15.40;1.00;;;;;;4963997;28;20094;-60
2023/08/11 05:34:42;;;;;;;14.73;12.05;;;15.20;1.00;;;;;;4956660;28;20316;-60
2023/08/11 05:37:07;;;;;;;16.35;13.02;;;15.30;1.00;;;;;;4962773;28;20555;-60
2023/08/11 05:39:33;;;;;;;18.10;12.85;;;15.90;1.00;;;;;;4967556;28;20031;-60
2023/08/11 05:41:59;;;;;;;15.02;13.10;;;15.20;1.00;;;;;;4961549;28;20101;-60
2023/08/11 05:44:24;;;;;;;18.90;13.07;;;15.90;1.00;;;;;;4960857;28;20063;-60
2023/08/11 05:46:51;;;;;;;14.93;12.63;;;;;;;;;;4960787;28;20138;-59
2023/08/11 05:49:16;;;;;;;14.65;12.63;;;16.00;1.00;;;;;;4963043;28;20404;-60
2023/08/11 05:51:42;;;;;;;15.27;12.48;;;16.20;1.00;;;;;;4964074;28;20039;-60
2023/08/11 05:54:08;;;;;;;17.58;13.10;;;;;;;;;;4958013;28;20031;-60
2023/08/11 05:56:34;;;;;;;17.27;13.30;;;15.90;1.00;;;;;;4958235;28;20085;-59
2023/08/11 05:58:59;;;;;;;17.20;12.52;;;15.60;1.00;;;;;;4963578;28;20043;-59
2023/08/11 06:01:25;;;;;;;17.05;13.07;;;16.30;1.00;;;;;;4964318;28;20537;-59
2023/08/11 06:03:51;;;;;;;16.05;12.27;;;;;;;;;;4959925;28;20130;-59
2023/08/11 06:06:16;;;;;;;15.60;12.13;;;16.00;1.00;;;;;;4964578;28;20252;-60
2023/08/11 06:08:42;;;;;;;15.52;12.15;;;16.30;1.00;;;;;;4967646;28;20198;-59
2023/08/11 06:11:08;;;;;;;17.35;12.57;;;16.30;1.00;;;;;;4966146;28;20066;-60
2023/08/11 06:13:33;;;;;;;16.58;12.93;;;16.30;1.00;;;;;;4961917;28;20074;-60
2023/08/11 06:15:59;;;;;;;19.23;13.48;;;16.60;1.00;;;;;;4966709;28;20114;-60
2023/08/11 06:18:25;;;;;;;15.15;11.98;;;16.30;1.00;;;;;;4954097;28;20039;-60
2023/08/11 06:20:51;;;;;;;15.63;12.75;;;17.10;1.00;;;;;;4964295;28;20556;-59
2023/08/11 06:23:17;;;;;;;15.43;12.25;;;16.60;1.00;;;;;;4961176;28;20677;-59
2023/08/11 06:25:42;;;;;;;14.07;11.40;;;16.70;1.00;;;;;;4957742;28;20065;-60
2023/08/11 06:28:08;;;;;;;15.57;11.93;;;16.50;1.00;;;;;;4966046;28;20445;-60
2023/08/11 06:30:34;;;;;;;15.52;12.88;;;16.70;1.00;;;;;;4961493;28;20039;-60
2023/08/11 06:32:59;;;;;;;14.88;13.10;;;17.30;1.00;;;;;;4969425;28;20058;-59
2023/08/11 06:35:25;;;;;;;17.98;12.80;;;16.60;1.00;;;;;;4965092;28;20468;-59
2023/08/11 06:37:51;;;;;;;15.07;11.95;;;17.00;1.00;;;;;;4969314;28;20101;-60
2023/08/11 06:40:17;;;;;;;16.00;11.13;;;17.10;1.00;;;;;;4959849;28;20055;-60
2023/08/11 06:42:42;;;;;;;17.70;11.75;;;17.70;1.00;;;;;;4967184;28;20041;-60
2023/08/11 06:45:08;;;;;;;19.95;12.90;;;17.00;1.00;;;;;;4961578;28;20077;-60
2023/08/11 06:47:34;;;;;;;15.30;11.98;;;17.20;1.00;;;;;;4963161;28;20465;-60
2023/08/11 06:50:00;;;;;;;16.85;13.13;;;17.20;1.00;;;;;;4965803;28;20039;-60
2023/08/11 06:52:26;;;;;;;14.32;12.40;;;17.10;1.00;;;;;;4966096;28;20374;-57
2023/08/11 06:54:52;;;;;;;18.50;11.13;;;17.40;1.00;;;;;;4972583;28;20114;-60
2023/08/11 06:57:20;;;;;;;13.57;11.68;;;17.50;1.00;;;;;;4964001;28;20031;-60
2023/08/11 06:59:45;;;;;;;17.60;12.27;;;18.10;1.00;;;;;;4965632;28;20042;-60
2023/08/11 07:02:11;;;;;;;14.95;11.05;;;17.70;1.00;;;;;;4964443;28;20040;-60
2023/08/11 07:04:37;;;;;;;16.90;12.38;;;18.00;1.00;;;;;;4957189;28;20043;-60
2023/08/11 07:07:02;;;;;;;15.48;11.05;;;17.80;1.00;;;;;;4967742;28;20089;-60
2023/08/11 07:09:28;;;;;;;15.18;11.77;;;18.00;1.00;;;;;;4963150;28;20031;-60
2023/08/11 07:11:54;;;;;;;14.15;10.52;;;17.70;99.90;;;;;;4968039;28;20030;-60
2023/08/11 07:14:19;;;;;;;15.30;10.63;;;18.10;99.90;;;;;;4968939;28;20090;-60
2023/08/11 07:16:45;;;;;;;12.45;9.43;;;18.50;99.90;;;;;;4964937;28;20441;-59
2023/08/11 07:19:10;;;;;;;13.18;9.88;;;18.50;99.90;;;;;;4957832;28;20039;-59
2023/08/11 07:21:36;;;;;;;13.73;10.10;;;18.50;99.90;;;;;;4964895;28;20042;-60
2023/08/11 07:24:02;;;;;;;11.25;8.90;;;18.80;99.90;;;;;;4959749;28;20082;-59
2023/08/11 07:26:27;;;;;;;13.27;9.20;;;18.90;99.90;;;;;;4961381;28;20039;-60
2023/08/11 07:28:53;;;;;;;12.63;9.35;;;19.00;99.90;;;;;;4961228;28;20047;-60
2023/08/11 07:31:19;;;;;;;10.10;7.70;;;19.00;99.90;;;;;;4964318;28;20057;-60
2023/08/11 07:33:45;;;;;;;12.73;8.65;;;19.00;99.90;;;;;;4971059;28;20050;-60
2023/08/11 07:36:10;;;;;;;10.70;8.52;;;19.60;99.90;;;;;;4961043;28;20408;-60
2023/08/11 07:38:36;;;;;;;13.98;8.90;;;19.30;99.90;;;;;;4973789;28;20098;-60
2023/08/11 07:41:02;;;;;;;10.48;7.60;;;19.00;99.90;;;;;;4972397;28;20039;-58
2023/08/11 07:43:28;;;;;;;11.27;8.13;;;19.50;99.90;;;;;;4973179;28;20031;-58
2023/08/11 07:45:53;;;;;;;11.00;7.88;;;20.00;99.90;;;;;;4965368;28;20560;-58
2023/08/11 07:48:19;;;;;;;11.15;8.13;;;19.80;99.90;;;;;;4970168;28;20046;-59
2023/08/11 07:50:45;;;;;;;12.43;7.95;;;19.30;99.90;;;;;;4971692;28;20042;-60
2023/08/11 07:53:10;;;;;;;11.98;8.98;;;19.80;99.90;;;;;;4956603;28;20042;-59
2023/08/11 07:55:36;;;;;;;14.50;10.18;;;19.80;99.90;;;;;;4973403;28;20114;-60
2023/08/11 07:58:03;;;;;;;12.85;9.88;;;19.80;99.90;;;;;;4992006;28;20045;-60
2023/08/11 08:00:29;;;;;;;13.60;9.55;;;19.80;99.90;;;;;;4970764;28;20042;-60
2023/08/11 08:02:55;;;;;;;16.13;10.35;;;20.60;99.90;;;;;;4972599;28;20051;-60
2023/08/11 08:05:22;;;;;;;12.77;9.63;;;20.10;99.90;;;;;;4964532;28;20110;-60
2023/08/11 08:07:47;;;;;;;13.25;9.00;;;19.80;99.90;;;;;;4956804;28;20043;-60
2023/08/11 08:10:14;;;;;;;11.52;9.18;;;20.30;99.90;;;;;;4948173;28;20089;-60
2023/08/11 08:12:42;;;;;;;12.95;9.70;;;19.70;99.90;;;;;;4959332;28;20118;-60
2023/08/11 08:15:10;;;;;;;12.82;10.60;;;20.40;99.90;;;;;;4966242;28;20047;-60
2023/08/11 08:17:37;;;;;;;14.30;9.57;;;20.30;99.90;;;;;;4971274;28;20386;-60
2023/08/11 08:20:13;;;;;;;15.55;9.70;;;20.30;99.90;;;;;;4960413;28;20043;-60
2023/08/11 08:22:39;;;;;;;12.70;9.50;;;20.40;99.90;;;;;;4969648;28;20497;-60
2023/08/11 08:25:08;;;;;;;12.50;8.85;;;20.20;99.90;;;;;;4968862;28;20119;-60
2023/08/11 08:27:39;;;;;;;14.43;9.82;;;20.40;90.80;;;;;;4969263;28;20047;-59
2023/08/11 08:30:09;;;;;;;12.50;8.65;;;20.60;67.00;;;;;;4968466;28;20038;-60
2023/08/11 08:32:37;;;;;;;12.02;9.50;;;20.60;69.30;;;;;;4961312;28;20047;-60
2023/08/11 08:35:03;;;;;;;13.63;9.23;;;21.50;45.60;;;;;;4968502;28;20086;-60
2023/08/11 08:37:31;;;;;;;12.23;8.50;;;21.70;52.00;;;;;;4972276;28;20071;-60
2023/08/11 08:39:57;;;;;;;13.32;9.15;;;21.00;21.20;;;;;;4960853;28;20043;-60
2023/08/11 08:42:25;;;;;;;11.90;7.82;;;20.90;1.00;;;;;;4965335;28;20069;-60
2023/08/11 08:44:53;;;;;;;12.57;7.57;;;21.70;1.00;;;;;;4958421;28;20054;-60
2023/08/11 08:47:21;;;;;;;13.07;7.93;;;21.40;1.00;;;;;;4967597;28;20408;-60
2023/08/11 08:49:48;;;;;;;11.00;7.18;;;21.50;1.00;;;;;;4968265;28;20046;-60
2023/08/11 08:52:15;;;;;;;11.45;7.03;;;21.60;1.00;;;;;;4962512;28;20046;-60
2023/08/11 08:54:41;;;;;;;12.88;7.20;;;22.30;1.00;;;;;;4963713;28;20058;-60
2023/08/11 08:57:11;;;;;;;10.95;6.55;;;22.30;99.90;;;;;;4963321;28;20053;-60
2023/08/11 08:59:37;;;;;;;10.43;6.85;;;22.30;99.90;;;;;;4966813;28;20031;-60
2023/08/11 09:02:04;;;;;;;10.90;6.30;;;22.20;99.90;;;;;;4966217;28;20039;-60
2023/08/11 09:04:30;;;;;;;10.52;6.55;;;22.30;99.90;;;;;;4971115;28;20043;-60
2023/08/11 09:06:56;;;;;;;8.80;5.72;;;22.60;99.90;;;;;;4970662;28;20049;-59
2023/08/11 09:09:23;;;;;;;13.15;6.28;;;22.60;99.90;;;;;;4965495;28;20114;-60
2023/08/11 09:11:49;;;;;;;10.20;5.97;;;22.70;99.90;;;;;;4964069;28;20031;-62
2023/08/11 09:14:16;;;;;;;10.48;5.80;;;22.70;99.90;;;;;;4965693;28;20043;-60
2023/08/11 09:16:42;;;;;;;10.43;5.93;;;22.90;99.90;;;;;;4956303;28;20046;-60
2023/08/11 09:19:11;;;;;;;10.02;5.78;;;23.00;99.90;;;;;;4963488;28;20069;-59
2023/08/11 09:21:37;;;;;;;10.35;6.40;;;23.30;99.90;;;;;;4971097;28;20378;-60
2023/08/11 09:24:04;;;;;;;10.43;5.80;;;23.90;99.90;;;;;;4968437;28;20050;-60
2023/08/11 09:26:30;;;;;;;10.27;5.70;;;24.10;99.90;;;;;;4960745;28;20042;-60
2023/08/11 09:28:55;;;;;;;7.32;4.75;;;23.60;99.90;;;;;;4968064;28;20053;-60
2023/08/11 09:31:25;;;;;;;8.98;5.10;;;24.20;99.90;;;;;;4966695;28;20382;-60
2023/08/11 09:33:52;;;;;;;8.98;5.13;;;23.80;85.50;;;;;;4958331;28;20066;-60
2023/08/11 09:36:19;;;;;;;10.35;5.22;;;23.90;1.00;;;;;;4961165;28;20063;-60
2023/08/11 09:38:45;;;;;;;8.40;4.22;;;24.20;1.00;;;;;;4965595;28;20111;-60
2023/08/11 09:41:12;;;;;;;7.47;4.43;;;24.40;1.00;;;;;;4961941;28;20044;-60
2023/08/11 09:43:38;;;;;;;8.30;4.95;;;24.00;99.90;;;;;;4968917;28;20041;-60
2023/08/11 09:46:04;;;;;;;9.45;4.85;;;24.50;99.90;;;;;;4969019;28;20035;-60
2023/08/11 09:48:31;;;;;;;9.05;4.90;;;24.00;99.90;;;;;;4962376;28;20034;-60
2023/08/11 09:50:57;;;;;;;10.13;5.50;;;23.90;99.90;;;;;;4953740;28;20042;-60
2023/08/11 09:53:24;;;;;;;8.80;4.82;;;24.60;99.90;;;;;;4951982;28;20046;-60
2023/08/11 09:55:54;;;;;;;9.45;4.80;;;23.70;99.90;;;;;;4964773;28;20035;-60
2023/08/11 09:58:24;;;;;;;8.65;4.95;;;23.70;1.00;;;;;;4959151;28;20202;-60
2023/08/11 10:00:52;;;;;;;10.82;5.05;;;24.60;1.00;;;;;;4960291;28;20050;-60
2023/08/11 10:03:22;;;;;;;7.65;4.20;;;24.50;99.90;;;;;;4964492;28;20049;-60
2023/08/11 10:05:51;;;;;;;9.88;5.05;;;23.80;99.90;;;;;;4969858;28;20121;-60
2023/08/11 10:08:21;;;;;;;8.98;4.65;;;24.00;99.90;;;;;;4964655;28;20035;-60
2023/08/11 10:10:47;;;;;;;7.40;4.28;;;24.00;1.00;;;;;;4964456;28;20436;-60
2023/08/11 10:13:17;;;;;;;8.15;4.53;;;24.40;99.90;;;;;;4955659;28;20130;-60
2023/08/11 10:15:44;;;;;;;11.38;5.32;;;24.10;99.90;;;;;;4958114;28;20047;-60
2023/08/11 10:18:10;;;;;;;8.88;4.22;;;24.80;99.90;;;;;;4955079;28;20035;-60
2023/08/11 10:20:36;;;;;;;9.60;4.57;;;24.20;99.90;;;;;;4953463;28;20043;-60
2023/08/11 10:23:02;;;;;;;9.25;4.05;;;24.60;99.90;;;;;;4956115;28;20042;-60
2023/08/11 10:25:29;;;;;;;8.68;4.47;;;24.30;99.90;;;;;;4954946;28;20054;-60
2023/08/11 10:27:56;;;;;;;10.45;4.22;;;25.30;99.90;;;;;;4953761;28;20282;-60
2023/08/11 10:30:23;;;;;;;7.95;4.57;;;25.30;99.90;;;;;;4954864;28;20046;-60
2023/08/11 10:33:02;;;;;;;9.38;4.22;;;25.60;99.90;;;;;;4955731;28;20062;-60
2023/08/11 10:35:34;;;;;;;8.95;3.90;;;25.80;99.90;;;;;;4954238;28;20278;-60
2023/08/11 10:38:00;;;;;;;7.68;4.25;;;25.60;99.90;;;;;;4962719;28;20050;-60
2023/08/11 10:40:39;;;;;;;7.93;4.10;;;25.60;99.90;;;;;;4966144;28;20395;-60
2023/08/11 10:43:05;;;;;;;9.15;4.30;;;25.60;99.90;;;;;;4965362;28;20116;-60
2023/08/11 10:45:36;;;;;;;7.93;3.88;;;26.00;99.90;;;;;;4953824;28;20038;-60
2023/08/11 10:48:09;;;;;;;9.63;4.22;;;25.90;99.90;;;;;;4951523;28;20055;-60
2023/08/11 10:50:37;;;;;;;9.13;3.93;;;25.70;99.90;;;;;;4961141;28;20054;-60
2023/08/11 10:53:16;;;;;;;7.70;4.50;;;25.90;99.90;;;;;;4967675;28;20042;-60
2023/08/11 10:55:42;;;;;;;7.63;4.20;;;26.00;99.90;;;;;;4971205;28;20409;-60
2023/08/11 10:58:17;;;;;;;8.10;4.43;;;25.40;99.90;;;;;;4967455;28;20039;-59
2023/08/11 11:00:42;;;;;;;8.13;4.30;;;26.20;99.90;;;;;;4969217;28;20513;-60
2023/08/11 11:03:09;;;;;;;6.80;3.95;;;26.10;99.90;;;;;;4964888;28;20114;-60
2023/08/11 11:05:34;;;;;;;6.75;3.67;;;26.10;99.90;;;;;;4974189;28;20085;-60
2023/08/11 11:08:00;;;;;;;7.57;4.22;;;26.20;99.90;;;;;;4973817;28;20038;-60
2023/08/11 11:10:26;;;;;;;6.82;3.63;;;26.40;95.60;;;;;;4960701;28;20066;-60
2023/08/11 11:12:51;;;;;;;9.00;4.28;;;26.40;80.70;;;;;;4969785;28;20390;-59
2023/08/11 11:15:17;;;;;;;8.45;3.55;;;25.80;63.20;;;;;;4969121;28;20047;-60
2023/08/11 11:17:43;;;;;;;8.30;3.83;;;26.40;47.90;;;;;;4969127;28;20039;-60
2023/08/11 11:20:09;;;;;;;8.18;4.05;;;26.50;50.50;;;;;;4972920;28;20457;-60
2023/08/11 11:22:36;;;;;;;6.40;3.55;;;26.50;46.80;;;;;;4961728;28;20041;-60
2023/08/11 11:25:03;;;;;;;7.15;3.72;;;26.60;64.40;;;;;;4964368;28;20318;-60
2023/08/11 11:27:29;;;;;;;8.70;4.22;;;26.50;55.40;;;;;;4961542;28;20116;-60
2023/08/11 11:29:59;;;;;;;9.85;3.95;;;26.60;31.90;;;;;;4963896;28;20065;-60
2023/08/11 11:32:24;;;;;;;8.20;3.90;;;27.00;47.80;;;;;;4973091;28;20042;-60
2023/08/11 11:34:50;;;;;;;7.88;3.58;;;26.80;52.60;;;;;;4963068;28;20039;-60
2023/08/11 11:37:17;;;;;;;7.43;3.90;;;26.60;55.00;;;;;;4969080;28;20037;-60
2023/08/11 11:39:43;;;;;;;7.85;3.55;;;27.00;42.00;;;;;;4970700;28;20077;-60
2023/08/11 11:42:09;;;;;;;10.02;3.78;;;26.80;10.10;;;;;;4971868;28;20034;-60
2023/08/11 11:44:35;;;;;;;6.85;4.15;;;27.20;14.70;;;;;;4961618;28;20039;-60
2023/08/11 11:47:02;;;;;;;8.07;3.47;;;27.20;8.00;;;;;;4964326;28;20417;-60
2023/08/11 11:49:31;;;;;;;7.93;3.90;;;27.20;1.00;;;;;;4970528;28;20039;-60
2023/08/11 11:51:58;;;;;;;6.35;3.53;;;27.60;1.00;;;;;;4963155;28;20054;-60
2023/08/11 11:54:27;;;;;;;6.03;3.50;;;27.60;1.00;;;;;;4962564;28;20039;-60
2023/08/11 11:56:52;;;;;;;7.20;3.78;;;27.60;1.00;;;;;;4969150;28;20049;-60
2023/08/11 11:59:18;;;;;;;7.07;3.80;;;27.50;1.00;;;;;;4965539;28;20409;-60
2023/08/11 12:01:44;;;;;;;7.55;3.55;;;27.00;1.00;;;;;;4965318;28;20047;-60
2023/08/11 12:04:11;;;;;;;6.78;3.85;;;27.10;1.00;;;;;;4968256;28;20054;-60
2023/08/11 12:06:36;;;;;;;6.25;3.17;;;26.80;1.00;;;;;;4971791;28;20034;-60
2023/08/11 12:09:08;;;;;;;7.25;3.65;;;27.00;1.00;;;;;;4969665;28;20057;-60
2023/08/11 12:11:35;;;;;;;9.50;3.75;;;27.20;1.00;;;;;;4966662;28;20114;-60
2023/08/11 12:14:01;;;;;;;6.80;2.90;;;27.30;1.00;;;;;;4964888;28;20481;-60
2023/08/11 12:16:28;;;;;;;5.55;3.28;;;27.00;1.00;;;;;;4962283;28;20042;-60
2023/08/11 12:18:53;;;;;;;8.20;3.20;;;27.00;1.00;;;;;;4960868;28;20485;-60
2023/08/11 12:21:19;;;;;;;8.93;3.35;;;27.10;1.00;;;;;;4962039;28;20047;-60
2023/08/11 12:23:45;;;;;;;9.93;3.60;;;27.90;1.00;;;;;;4966384;28;20044;-60
2023/08/11 12:26:10;;;;;;;6.70;4.03;;;27.50;1.00;;;;;;4987023;28;20104;-60
2023/08/11 12:28:36;;;;;;;7.25;3.95;;;27.30;1.00;;;;;;4963700;28;20524;-60
2023/08/11 12:31:03;;;;;;;9.25;4.05;;;27.50;1.00;;;;;;4963062;28;20042;-60
2023/08/11 12:33:29;;;;;;;8.95;4.97;;;28.20;1.00;;;;;;4963043;28;20039;-60
2023/08/11 12:35:54;;;;;;;8.23;4.47;;;27.90;1.00;;;;;;4965522;28;20352;-61
2023/08/11 12:38:20;;;;;;;6.28;3.70;;;28.50;1.00;;;;;;4971967;28;20035;-61
2023/08/11 12:40:47;;;;;;;8.68;4.40;;;30.10;1.00;;;;;;4964861;28;20049;-61